Tilley, Canada
Current Conditions -  °F | °C
As of 4:00 PM on Saturday 20 Dec 2014 (Local Time) from CYXH Reporting Station
Scattered Clouds Scattered Clouds  
Wind Chill: 26°   Ceiling: Unl
Heat Index: 34°   Visibility: 30mi
Dew Point: 28°   Wind: 9mph
Humidity: 81%   Direction: 210°SSW
Pressure: 29.67"   Gusts: NA
Location:  50.45°N, 111.65°W
Report Text: CYXH 202300Z 21008KT 30SM FEW150 SCT260 01/M02 A2967 RMK AC1CI2 SLP071
Loading
Personal Weather Stations






























Interactive Weather Map New forecast layout! Learn more

10-Day Weather Forecast

Advertisements
Track Severe Weather on mobile